sensor_id;sensor_type;location;lat;lon;timestamp;P1;durP1;ratioP1;P2;durP2;ratioP2
2029;SDS011;1020;48.854;8.830;2023-09-08T00:00:55;7.60;;;7.00;;
2029;SDS011;1020;48.854;8.830;2023-09-08T00:03:22;7.90;;;7.20;;
2029;SDS011;1020;48.854;8.830;2023-09-08T00:05:48;8.30;;;7.60;;
2029;SDS011;1020;48.854;8.830;2023-09-08T00:08:16;9.10;;;8.20;;
2029;SDS011;1020;48.854;8.830;2023-09-08T00:10:42;9.03;;;8.17;;
2029;SDS011;1020;48.854;8.830;2023-09-08T00:13:10;8.60;;;7.90;;
2029;SDS011;1020;48.854;8.830;2023-09-08T00:15:38;8.90;;;8.10;;
2029;SDS011;1020;48.854;8.830;2023-09-08T00:18:04;10.93;;;9.50;;
2029;SDS011;1020;48.854;8.830;2023-09-08T00:20:31;8.90;;;8.30;;
2029;SDS011;1020;48.854;8.830;2023-09-08T00:22:58;8.27;;;7.67;;
2029;SDS011;1020;48.854;8.830;2023-09-08T00:25:25;8.90;;;8.20;;
2029;SDS011;1020;48.854;8.830;2023-09-08T00:27:51;8.30;;;7.70;;
2029;SDS011;1020;48.854;8.830;2023-09-08T00:30:19;8.17;;;7.57;;
2029;SDS011;1020;48.854;8.830;2023-09-08T00:32:46;9.00;;;7.40;;
2029;SDS011;1020;48.854;8.830;2023-09-08T00:35:13;8.73;;;8.03;;
2029;SDS011;1020;48.854;8.830;2023-09-08T00:37:40;8.97;;;8.17;;
2029;SDS011;1020;48.854;8.830;2023-09-08T00:40:07;8.83;;;8.03;;
2029;SDS011;1020;48.854;8.830;2023-09-08T00:42:34;7.87;;;7.17;;
2029;SDS011;1020;48.854;8.830;2023-09-08T00:45:01;9.60;;;8.80;;
2029;SDS011;1020;48.854;8.830;2023-09-08T00:47:29;8.33;;;7.43;;
2029;SDS011;1020;48.854;8.830;2023-09-08T00:49:56;7.60;;;6.80;;
2029;SDS011;1020;48.854;8.830;2023-09-08T00:52:23;9.17;;;8.47;;
2029;SDS011;1020;48.854;8.830;2023-09-08T00:54:56;9.43;;;8.47;;
2029;SDS011;1020;48.854;8.830;2023-09-08T00:57:23;9.50;;;8.53;;
2029;SDS011;1020;48.854;8.830;2023-09-08T00:59:50;11.33;;;8.50;;
2029;SDS011;1020;48.854;8.830;2023-09-08T01:02:17;8.33;;;7.63;;
2029;SDS011;1020;48.854;8.830;2023-09-08T01:04:45;8.40;;;7.70;;
2029;SDS011;1020;48.854;8.830;2023-09-08T01:07:12;7.97;;;7.37;;
2029;SDS011;1020;48.854;8.830;2023-09-08T01:09:40;7.73;;;7.03;;
2029;SDS011;1020;48.854;8.830;2023-09-08T01:12:08;8.37;;;7.67;;
2029;SDS011;1020;48.854;8.830;2023-09-08T01:14:35;7.57;;;6.97;;
2029;SDS011;1020;48.854;8.830;2023-09-08T01:17:01;7.93;;;7.33;;
2029;SDS011;1020;48.854;8.830;2023-09-08T01:19:28;7.83;;;7.23;;
2029;SDS011;1020;48.854;8.830;2023-09-08T01:22:11;7.70;;;7.10;;
2029;SDS011;1020;48.854;8.830;2023-09-08T01:25:12;8.03;;;7.43;;
2029;SDS011;1020;48.854;8.830;2023-09-08T01:27:43;8.50;;;7.80;;
2029;SDS011;1020;48.854;8.830;2023-09-08T01:30:13;7.77;;;7.27;;
2029;SDS011;1020;48.854;8.830;2023-09-08T01:32:41;7.90;;;7.20;;
2029;SDS011;1020;48.854;8.830;2023-09-08T01:35:09;8.13;;;7.43;;
2029;SDS011;1020;48.854;8.830;2023-09-08T01:37:38;8.13;;;7.53;;
2029;SDS011;1020;48.854;8.830;2023-09-08T01:40:06;8.70;;;7.80;;
2029;SDS011;1020;48.854;8.830;2023-09-08T01:42:35;7.90;;;7.30;;
2029;SDS011;1020;48.854;8.830;2023-09-08T01:45:02;8.40;;;7.80;;
2029;SDS011;1020;48.854;8.830;2023-09-08T01:47:29;8.43;;;7.70;;
2029;SDS011;1020;48.854;8.830;2023-09-08T01:49:56;7.90;;;7.30;;
2029;SDS011;1020;48.854;8.830;2023-09-08T01:52:23;8.90;;;8.20;;
2029;SDS011;1020;48.854;8.830;2023-09-08T01:54:50;8.23;;;7.53;;
2029;SDS011;1020;48.854;8.830;2023-09-08T01:57:17;8.70;;;8.00;;
2029;SDS011;1020;48.854;8.830;2023-09-08T01:59:45;9.40;;;7.87;;
2029;SDS011;1020;48.854;8.830;2023-09-08T02:02:13;7.67;;;7.00;;
2029;SDS011;1020;48.854;8.830;2023-09-08T02:04:39;12.33;;;8.50;;
2029;SDS011;1020;48.854;8.830;2023-09-08T02:07:06;8.23;;;7.63;;
2029;SDS011;1020;48.854;8.830;2023-09-08T02:09:33;8.23;;;7.57;;
2029;SDS011;1020;48.854;8.830;2023-09-08T02:12:02;8.07;;;7.57;;
2029;SDS011;1020;48.854;8.830;2023-09-08T02:14:29;8.53;;;7.73;;
2029;SDS011;1020;48.854;8.830;2023-09-08T02:16:57;7.90;;;7.30;;
2029;SDS011;1020;48.854;8.830;2023-09-08T02:19:24;8.17;;;7.53;;
2029;SDS011;1020;48.854;8.830;2023-09-08T02:21:51;8.60;;;7.80;;
2029;SDS011;1020;48.854;8.830;2023-09-08T02:24:18;8.10;;;7.40;;
2029;SDS011;1020;48.854;8.830;2023-09-08T02:26:45;8.70;;;8.00;;
2029;SDS011;1020;48.854;8.830;2023-09-08T02:29:11;8.60;;;8.00;;
2029;SDS011;1020;48.854;8.830;2023-09-08T02:31:38;9.17;;;8.20;;
2029;SDS011;1020;48.854;8.830;2023-09-08T02:34:06;8.80;;;8.00;;
2029;SDS011;1020;48.854;8.830;2023-09-08T02:36:33;8.13;;;7.50;;
2029;SDS011;1020;48.854;8.830;2023-09-08T02:39:00;7.90;;;7.30;;
2029;SDS011;1020;48.854;8.830;2023-09-08T02:41:26;8.83;;;8.13;;
2029;SDS011;1020;48.854;8.830;2023-09-08T02:43:53;8.40;;;7.70;;
2029;SDS011;1020;48.854;8.830;2023-09-08T02:46:20;9.20;;;8.37;;
2029;SDS011;1020;48.854;8.830;2023-09-08T02:48:47;8.63;;;8.00;;
2029;SDS011;1020;48.854;8.830;2023-09-08T02:51:15;8.83;;;8.07;;
2029;SDS011;1020;48.854;8.830;2023-09-08T02:53:41;8.57;;;7.57;;
2029;SDS011;1020;48.854;8.830;2023-09-08T02:56:08;8.07;;;7.37;;
2029;SDS011;1020;48.854;8.830;2023-09-08T02:58:35;8.87;;;8.17;;
2029;SDS011;1020;48.854;8.830;2023-09-08T03:01:12;8.63;;;7.83;;
2029;SDS011;1020;48.854;8.830;2023-09-08T03:03:40;7.90;;;7.27;;
2029;SDS011;1020;48.854;8.830;2023-09-08T03:06:07;8.87;;;8.07;;
2029;SDS011;1020;48.854;8.830;2023-09-08T03:08:35;8.33;;;7.63;;
2029;SDS011;1020;48.854;8.830;2023-09-08T03:11:03;8.23;;;7.60;;
2029;SDS011;1020;48.854;8.830;2023-09-08T03:13:30;9.37;;;8.67;;
2029;SDS011;1020;48.854;8.830;2023-09-08T03:15:57;9.40;;;8.70;;
2029;SDS011;1020;48.854;8.830;2023-09-08T03:18:29;9.53;;;8.83;;
2029;SDS011;1020;48.854;8.830;2023-09-08T03:20:55;10.20;;;9.40;;
2029;SDS011;1020;48.854;8.830;2023-09-08T03:23:22;8.80;;;8.13;;
2029;SDS011;1020;48.854;8.830;2023-09-08T03:25:50;9.67;;;8.80;;
2029;SDS011;1020;48.854;8.830;2023-09-08T03:28:17;9.63;;;8.87;;
2029;SDS011;1020;48.854;8.830;2023-09-08T03:30:44;9.50;;;8.70;;
2029;SDS011;1020;48.854;8.830;2023-09-08T03:33:10;9.90;;;9.00;;
2029;SDS011;1020;48.854;8.830;2023-09-08T03:35:37;10.03;;;8.83;;
2029;SDS011;1020;48.854;8.830;2023-09-08T03:38:04;8.60;;;8.00;;
2029;SDS011;1020;48.854;8.830;2023-09-08T03:40:31;8.77;;;8.07;;
2029;SDS011;1020;48.854;8.830;2023-09-08T03:42:59;10.30;;;9.30;;
2029;SDS011;1020;48.854;8.830;2023-09-08T03:45:25;9.70;;;8.50;;
2029;SDS011;1020;48.854;8.830;2023-09-08T03:47:52;8.77;;;8.07;;
2029;SDS011;1020;48.854;8.830;2023-09-08T03:50:19;10.50;;;9.80;;
2029;SDS011;1020;48.854;8.830;2023-09-08T03:52:45;9.80;;;8.90;;
2029;SDS011;1020;48.854;8.830;2023-09-08T03:55:12;9.70;;;8.90;;
2029;SDS011;1020;48.854;8.830;2023-09-08T03:57:39;10.30;;;9.33;;
2029;SDS011;1020;48.854;8.830;2023-09-08T04:00:08;10.40;;;9.53;;
2029;SDS011;1020;48.854;8.830;2023-09-08T04:02:36;9.97;;;9.17;;
2029;SDS011;1020;48.854;8.830;2023-09-08T04:05:03;10.50;;;9.00;;
2029;SDS011;1020;48.854;8.830;2023-09-08T04:07:31;10.43;;;9.43;;
2029;SDS011;1020;48.854;8.830;2023-09-08T04:09:57;9.10;;;8.40;;
2029;SDS011;1020;48.854;8.830;2023-09-08T04:12:24;8.07;;;7.47;;
2029;SDS011;1020;48.854;8.830;2023-09-08T04:14:51;9.50;;;8.77;;
2029;SDS011;1020;48.854;8.830;2023-09-08T04:17:19;10.73;;;9.83;;
2029;SDS011;1020;48.854;8.830;2023-09-08T04:19:46;9.50;;;8.70;;
2029;SDS011;1020;48.854;8.830;2023-09-08T04:22:12;9.70;;;9.00;;
2029;SDS011;1020;48.854;8.830;2023-09-08T04:24:39;10.00;;;9.20;;
2029;SDS011;1020;48.854;8.830;2023-09-08T04:27:06;10.63;;;9.73;;
2029;SDS011;1020;48.854;8.830;2023-09-08T04:29:34;10.70;;;9.90;;
2029;SDS011;1020;48.854;8.830;2023-09-08T04:32:00;9.90;;;9.10;;
2029;SDS011;1020;48.854;8.830;2023-09-08T04:34:35;10.53;;;9.47;;
2029;SDS011;1020;48.854;8.830;2023-09-08T04:37:02;10.20;;;9.50;;
2029;SDS011;1020;48.854;8.830;2023-09-08T04:39:29;9.20;;;8.40;;
2029;SDS011;1020;48.854;8.830;2023-09-08T04:41:56;9.70;;;8.90;;
2029;SDS011;1020;48.854;8.830;2023-09-08T04:44:23;10.17;;;9.37;;
2029;SDS011;1020;48.854;8.830;2023-09-08T04:46:51;10.80;;;9.93;;
2029;SDS011;1020;48.854;8.830;2023-09-08T04:49:19;9.83;;;9.03;;
2029;SDS011;1020;48.854;8.830;2023-09-08T04:51:47;10.03;;;9.13;;
2029;SDS011;1020;48.854;8.830;2023-09-08T04:54:14;9.67;;;8.87;;
2029;SDS011;1020;48.854;8.830;2023-09-08T04:56:40;9.60;;;8.80;;
2029;SDS011;1020;48.854;8.830;2023-09-08T04:59:07;9.93;;;9.13;;
2029;SDS011;1020;48.854;8.830;2023-09-08T05:01:34;9.80;;;9.00;;
2029;SDS011;1020;48.854;8.830;2023-09-08T05:04:02;10.60;;;9.70;;
2029;SDS011;1020;48.854;8.830;2023-09-08T05:06:29;10.70;;;9.80;;
2029;SDS011;1020;48.854;8.830;2023-09-08T05:08:57;10.33;;;9.47;;
2029;SDS011;1020;48.854;8.830;2023-09-08T05:11:24;9.67;;;8.93;;
2029;SDS011;1020;48.854;8.830;2023-09-08T05:13:51;10.53;;;9.63;;
2029;SDS011;1020;48.854;8.830;2023-09-08T05:16:18;10.43;;;9.43;;
2029;SDS011;1020;48.854;8.830;2023-09-08T05:18:51;10.93;;;9.93;;
2029;SDS011;1020;48.854;8.830;2023-09-08T05:21:17;11.20;;;10.20;;
2029;SDS011;1020;48.854;8.830;2023-09-08T05:23:44;11.67;;;10.67;;
2029;SDS011;1020;48.854;8.830;2023-09-08T05:26:12;11.77;;;10.40;;
2029;SDS011;1020;48.854;8.830;2023-09-08T05:28:39;11.40;;;10.20;;
2029;SDS011;1020;48.854;8.830;2023-09-08T05:31:06;11.53;;;10.33;;
2029;SDS011;1020;48.854;8.830;2023-09-08T05:33:32;11.10;;;10.07;;
2029;SDS011;1020;48.854;8.830;2023-09-08T05:35:59;10.07;;;9.07;;
2029;SDS011;1020;48.854;8.830;2023-09-08T05:38:26;11.50;;;10.60;;
2029;SDS011;1020;48.854;8.830;2023-09-08T05:40:53;10.07;;;9.27;;
2029;SDS011;1020;48.854;8.830;2023-09-08T05:43:22;10.13;;;9.23;;
2029;SDS011;1020;48.854;8.830;2023-09-08T05:45:51;11.63;;;10.43;;
2029;SDS011;1020;48.854;8.830;2023-09-08T05:48:18;10.90;;;9.93;;
2029;SDS011;1020;48.854;8.830;2023-09-08T05:50:45;11.23;;;10.33;;
2029;SDS011;1020;48.854;8.830;2023-09-08T05:53:12;10.93;;;10.00;;
2029;SDS011;1020;48.854;8.830;2023-09-08T05:55:39;11.40;;;10.30;;
2029;SDS011;1020;48.854;8.830;2023-09-08T05:58:06;9.73;;;9.00;;
2029;SDS011;1020;48.854;8.830;2023-09-08T06:00:34;11.33;;;9.93;;
2029;SDS011;1020;48.854;8.830;2023-09-08T06:03:01;10.17;;;9.37;;
2029;SDS011;1020;48.854;8.830;2023-09-08T06:05:28;10.30;;;9.50;;
2029;SDS011;1020;48.854;8.830;2023-09-08T06:07:55;10.40;;;9.50;;
2029;SDS011;1020;48.854;8.830;2023-09-08T06:10:22;11.13;;;10.00;;
2029;SDS011;1020;48.854;8.830;2023-09-08T06:12:48;9.93;;;9.23;;
2029;SDS011;1020;48.854;8.830;2023-09-08T06:15:16;10.60;;;9.70;;
2029;SDS011;1020;48.854;8.830;2023-09-08T06:17:44;9.87;;;8.97;;
2029;SDS011;1020;48.854;8.830;2023-09-08T06:20:11;9.47;;;8.57;;
2029;SDS011;1020;48.854;8.830;2023-09-08T06:22:38;9.40;;;8.70;;
2029;SDS011;1020;48.854;8.830;2023-09-08T06:25:05;9.97;;;9.07;;
2029;SDS011;1020;48.854;8.830;2023-09-08T06:27:32;9.90;;;9.00;;
2029;SDS011;1020;48.854;8.830;2023-09-08T06:29:59;9.83;;;9.10;;
2029;SDS011;1020;48.854;8.830;2023-09-08T06:32:26;9.40;;;8.70;;
2029;SDS011;1020;48.854;8.830;2023-09-08T06:34:54;10.10;;;9.30;;
2029;SDS011;1020;48.854;8.830;2023-09-08T06:37:21;9.53;;;8.63;;
2029;SDS011;1020;48.854;8.830;2023-09-08T06:39:47;9.50;;;8.80;;
2029;SDS011;1020;48.854;8.830;2023-09-08T06:42:14;9.30;;;8.50;;
2029;SDS011;1020;48.854;8.830;2023-09-08T06:44:41;10.80;;;8.97;;
2029;SDS011;1020;48.854;8.830;2023-09-08T06:47:07;9.10;;;8.30;;
2029;SDS011;1020;48.854;8.830;2023-09-08T06:49:34;9.17;;;8.27;;
2029;SDS011;1020;48.854;8.830;2023-09-08T06:52:03;9.57;;;8.57;;
2029;SDS011;1020;48.854;8.830;2023-09-08T06:54:31;8.67;;;7.97;;
2029;SDS011;1020;48.854;8.830;2023-09-08T06:56:57;8.47;;;7.77;;
2029;SDS011;1020;48.854;8.830;2023-09-08T06:59:24;7.30;;;6.60;;
2029;SDS011;1020;48.854;8.830;2023-09-08T07:01:51;7.93;;;7.33;;
2029;SDS011;1020;48.854;8.830;2023-09-08T07:04:18;7.50;;;6.90;;
2029;SDS011;1020;48.854;8.830;2023-09-08T07:06:44;7.70;;;7.17;;
2029;SDS011;1020;48.854;8.830;2023-09-08T07:09:13;7.67;;;6.77;;
2029;SDS011;1020;48.854;8.830;2023-09-08T07:11:39;7.10;;;6.40;;
2029;SDS011;1020;48.854;8.830;2023-09-08T07:14:06;6.50;;;6.10;;
2029;SDS011;1020;48.854;8.830;2023-09-08T07:16:33;6.30;;;5.80;;
2029;SDS011;1020;48.854;8.830;2023-09-08T07:19:01;5.97;;;5.57;;
2029;SDS011;1020;48.854;8.830;2023-09-08T07:21:28;7.57;;;6.90;;
2029;SDS011;1020;48.854;8.830;2023-09-08T07:23:54;6.83;;;6.33;;
2029;SDS011;1020;48.854;8.830;2023-09-08T07:26:22;6.50;;;6.03;;
2029;SDS011;1020;48.854;8.830;2023-09-08T07:28:49;6.40;;;5.77;;
2029;SDS011;1020;48.854;8.830;2023-09-08T07:31:16;7.07;;;6.27;;
2029;SDS011;1020;48.854;8.830;2023-09-08T07:33:43;7.33;;;5.80;;
2029;SDS011;1020;48.854;8.830;2023-09-08T07:36:10;5.27;;;4.87;;
2029;SDS011;1020;48.854;8.830;2023-09-08T07:38:36;6.00;;;5.50;;
2029;SDS011;1020;48.854;8.830;2023-09-08T07:41:03;5.67;;;5.17;;
2029;SDS011;1020;48.854;8.830;2023-09-08T07:43:31;6.20;;;5.80;;
2029;SDS011;1020;48.854;8.830;2023-09-08T07:45:58;5.30;;;5.00;;
2029;SDS011;1020;48.854;8.830;2023-09-08T07:48:25;5.30;;;5.00;;
2029;SDS011;1020;48.854;8.830;2023-09-08T07:50:52;5.03;;;4.73;;
2029;SDS011;1020;48.854;8.830;2023-09-08T07:53:18;4.97;;;4.57;;
2029;SDS011;1020;48.854;8.830;2023-09-08T07:55:45;5.17;;;4.87;;
2029;SDS011;1020;48.854;8.830;2023-09-08T07:58:12;4.73;;;4.43;;
2029;SDS011;1020;48.854;8.830;2023-09-08T08:00:40;4.43;;;4.23;;
2029;SDS011;1020;48.854;8.830;2023-09-08T08:03:07;5.83;;;5.53;;
2029;SDS011;1020;48.854;8.830;2023-09-08T08:05:34;5.10;;;4.70;;
2029;SDS011;1020;48.854;8.830;2023-09-08T08:08:01;5.40;;;5.10;;
2029;SDS011;1020;48.854;8.830;2023-09-08T08:10:28;5.30;;;5.00;;
2029;SDS011;1020;48.854;8.830;2023-09-08T08:12:55;5.30;;;4.80;;
2029;SDS011;1020;48.854;8.830;2023-09-08T08:15:22;5.00;;;4.70;;
2029;SDS011;1020;48.854;8.830;2023-09-08T08:18:01;5.93;;;5.53;;
2029;SDS011;1020;48.854;8.830;2023-09-08T08:20:28;5.30;;;5.00;;
2029;SDS011;1020;48.854;8.830;2023-09-08T08:22:59;5.10;;;4.80;;
2029;SDS011;1020;48.854;8.830;2023-09-08T08:25:26;5.67;;;5.17;;
2029;SDS011;1020;48.854;8.830;2023-09-08T08:27:53;5.70;;;5.30;;
2029;SDS011;1020;48.854;8.830;2023-09-08T08:30:19;6.07;;;5.60;;
2029;SDS011;1020;48.854;8.830;2023-09-08T08:32:46;6.10;;;5.70;;
2029;SDS011;1020;48.854;8.830;2023-09-08T08:35:14;4.40;;;4.10;;
2029;SDS011;1020;48.854;8.830;2023-09-08T08:37:41;5.50;;;5.20;;
2029;SDS011;1020;48.854;8.830;2023-09-08T08:40:09;5.70;;;5.20;;
2029;SDS011;1020;48.854;8.830;2023-09-08T08:42:37;5.80;;;5.40;;
2029;SDS011;1020;48.854;8.830;2023-09-08T08:45:05;5.10;;;4.80;;
2029;SDS011;1020;48.854;8.830;2023-09-08T08:47:32;6.73;;;6.20;;
2029;SDS011;1020;48.854;8.830;2023-09-08T08:50:00;5.83;;;5.33;;
2029;SDS011;1020;48.854;8.830;2023-09-08T08:52:30;6.03;;;5.53;;
2029;SDS011;1020;48.854;8.830;2023-09-08T08:54:59;5.50;;;5.10;;
2029;SDS011;1020;48.854;8.830;2023-09-08T08:57:26;4.97;;;4.67;;
2029;SDS011;1020;48.854;8.830;2023-09-08T08:59:53;5.17;;;4.87;;
2029;SDS011;1020;48.854;8.830;2023-09-08T09:02:20;6.23;;;5.80;;
2029;SDS011;1020;48.854;8.830;2023-09-08T09:04:48;6.00;;;5.50;;
2029;SDS011;1020;48.854;8.830;2023-09-08T09:07:15;5.40;;;5.00;;
2029;SDS011;1020;48.854;8.830;2023-09-08T09:09:46;6.97;;;6.47;;
2029;SDS011;1020;48.854;8.830;2023-09-08T09:12:13;5.67;;;5.30;;
2029;SDS011;1020;48.854;8.830;2023-09-08T09:14:44;5.30;;;5.00;;
2029;SDS011;1020;48.854;8.830;2023-09-08T09:17:12;6.60;;;6.20;;
2029;SDS011;1020;48.854;8.830;2023-09-08T09:19:40;6.40;;;5.93;;
2029;SDS011;1020;48.854;8.830;2023-09-08T09:22:06;6.20;;;5.77;;
2029;SDS011;1020;48.854;8.830;2023-09-08T09:24:34;6.00;;;5.60;;
2029;SDS011;1020;48.854;8.830;2023-09-08T09:27:07;6.23;;;5.83;;
2029;SDS011;1020;48.854;8.830;2023-09-08T09:29:34;6.40;;;5.07;;
2029;SDS011;1020;48.854;8.830;2023-09-08T09:32:10;5.63;;;5.23;;
2029;SDS011;1020;48.854;8.830;2023-09-08T09:34:40;5.20;;;4.90;;
2029;SDS011;1020;48.854;8.830;2023-09-08T09:37:14;6.07;;;5.67;;
2029;SDS011;1020;48.854;8.830;2023-09-08T09:39:41;4.90;;;4.60;;
2029;SDS011;1020;48.854;8.830;2023-09-08T09:42:09;6.10;;;5.80;;
2029;SDS011;1020;48.854;8.830;2023-09-08T09:44:36;5.73;;;5.33;;
2029;SDS011;1020;48.854;8.830;2023-09-08T09:47:03;5.50;;;5.20;;
2029;SDS011;1020;48.854;8.830;2023-09-08T09:49:32;6.33;;;5.87;;
2029;SDS011;1020;48.854;8.830;2023-09-08T09:52:07;5.90;;;5.50;;
2029;SDS011;1020;48.854;8.830;2023-09-08T09:54:34;5.60;;;5.07;;
2029;SDS011;1020;48.854;8.830;2023-09-08T09:57:00;5.73;;;5.33;;
2029;SDS011;1020;48.854;8.830;2023-09-08T09:59:30;5.53;;;5.13;;
2029;SDS011;1020;48.854;8.830;2023-09-08T10:01:57;5.50;;;5.10;;
2029;SDS011;1020;48.854;8.830;2023-09-08T10:04:25;5.43;;;5.03;;
2029;SDS011;1020;48.854;8.830;2023-09-08T10:06:53;4.90;;;4.60;;
2029;SDS011;1020;48.854;8.830;2023-09-08T10:09:23;6.13;;;5.67;;
2029;SDS011;1020;48.854;8.830;2023-09-08T10:11:50;5.00;;;4.70;;
2029;SDS011;1020;48.854;8.830;2023-09-08T10:14:20;5.27;;;4.97;;
2029;SDS011;1020;48.854;8.830;2023-09-08T10:16:50;5.37;;;5.00;;
2029;SDS011;1020;48.854;8.830;2023-09-08T10:19:21;5.10;;;4.70;;
2029;SDS011;1020;48.854;8.830;2023-09-08T10:21:49;5.90;;;5.50;;
2029;SDS011;1020;48.854;8.830;2023-09-08T10:24:18;5.43;;;5.22;;
2029;SDS011;1020;48.854;8.830;2023-09-08T10:26:51;4.80;;;4.60;;
2029;SDS011;1020;48.854;8.830;2023-09-08T10:29:22;5.43;;;5.03;;
2029;SDS011;1020;48.854;8.830;2023-09-08T10:31:51;5.05;;;4.65;;
2029;SDS011;1020;48.854;8.830;2023-09-08T10:34:19;5.32;;;4.93;;
2029;SDS011;1020;48.854;8.830;2023-09-08T10:36:47;5.28;;;4.88;;
2029;SDS011;1020;48.854;8.830;2023-09-08T10:39:30;4.95;;;4.47;;
2029;SDS011;1020;48.854;8.830;2023-09-08T10:44:55;5.45;;;5.03;;
2029;SDS011;1020;48.854;8.830;2023-09-08T10:47:24;5.00;;;4.80;;
2029;SDS011;1020;48.854;8.830;2023-09-08T10:49:52;5.30;;;4.90;;
2029;SDS011;1020;48.854;8.830;2023-09-08T10:52:22;5.30;;;5.00;;
2029;SDS011;1020;48.854;8.830;2023-09-08T10:54:50;4.85;;;4.47;;
2029;SDS011;1020;48.854;8.830;2023-09-08T10:57:18;5.10;;;4.80;;
2029;SDS011;1020;48.854;8.830;2023-09-08T10:59:48;4.65;;;4.45;;
2029;SDS011;1020;48.854;8.830;2023-09-08T11:02:33;5.28;;;4.97;;
2029;SDS011;1020;48.854;8.830;2023-09-08T11:05:01;4.60;;;4.30;;
2029;SDS011;1020;48.854;8.830;2023-09-08T11:07:30;4.82;;;4.43;;
2029;SDS011;1020;48.854;8.830;2023-09-08T11:09:56;6.50;;;4.95;;
2029;SDS011;1020;48.854;8.830;2023-09-08T11:12:25;5.35;;;4.95;;
2029;SDS011;1020;48.854;8.830;2023-09-08T11:14:53;5.43;;;5.13;;
2029;SDS011;1020;48.854;8.830;2023-09-08T11:17:19;5.47;;;4.70;;
2029;SDS011;1020;48.854;8.830;2023-09-08T11:19:48;5.50;;;4.70;;
2029;SDS011;1020;48.854;8.830;2023-09-08T11:22:16;5.15;;;4.80;;
2029;SDS011;1020;48.854;8.830;2023-09-08T11:24:43;5.10;;;4.80;;
2029;SDS011;1020;48.854;8.830;2023-09-08T11:27:10;5.28;;;4.85;;
2029;SDS011;1020;48.854;8.830;2023-09-08T11:29:37;5.35;;;5.03;;
2029;SDS011;1020;48.854;8.830;2023-09-08T11:32:05;5.28;;;4.88;;
2029;SDS011;1020;48.854;8.830;2023-09-08T11:34:33;5.18;;;4.57;;
2029;SDS011;1020;48.854;8.830;2023-09-08T11:37:01;5.57;;;5.18;;
2029;SDS011;1020;48.854;8.830;2023-09-08T11:39:35;5.10;;;4.78;;
2029;SDS011;1020;48.854;8.830;2023-09-08T11:42:03;5.05;;;4.57;;
2029;SDS011;1020;48.854;8.830;2023-09-08T11:44:30;5.63;;;5.22;;
2029;SDS011;1020;48.854;8.830;2023-09-08T11:46:57;4.82;;;4.53;;
2029;SDS011;1020;48.854;8.830;2023-09-08T11:49:24;5.10;;;4.78;;
2029;SDS011;1020;48.854;8.830;2023-09-08T11:51:51;5.65;;;4.80;;
2029;SDS011;1020;48.854;8.830;2023-09-08T11:54:19;4.93;;;4.53;;
2029;SDS011;1020;48.854;8.830;2023-09-08T11:56:46;6.05;;;5.65;;
2029;SDS011;1020;48.854;8.830;2023-09-08T11:59:13;5.30;;;5.00;;
2029;SDS011;1020;48.854;8.830;2023-09-08T12:01:39;5.70;;;5.40;;
2029;SDS011;1020;48.854;8.830;2023-09-08T12:04:06;5.15;;;4.70;;
2029;SDS011;1020;48.854;8.830;2023-09-08T12:06:44;4.88;;;4.57;;
2029;SDS011;1020;48.854;8.830;2023-09-08T12:09:11;5.07;;;4.78;;
2029;SDS011;1020;48.854;8.830;2023-09-08T12:11:39;4.80;;;4.50;;
2029;SDS011;1020;48.854;8.830;2023-09-08T12:14:08;5.40;;;5.10;;
2029;SDS011;1020;48.854;8.830;2023-09-08T12:16:37;5.10;;;4.80;;
2029;SDS011;1020;48.854;8.830;2023-09-08T12:19:04;4.60;;;4.30;;
2029;SDS011;1020;48.854;8.830;2023-09-08T12:21:32;5.65;;;5.25;;
2029;SDS011;1020;48.854;8.830;2023-09-08T12:24:01;5.13;;;4.82;;
2029;SDS011;1020;48.854;8.830;2023-09-08T12:26:28;5.50;;;5.10;;
2029;SDS011;1020;48.854;8.830;2023-09-08T12:28:56;5.00;;;4.63;;
2029;SDS011;1020;48.854;8.830;2023-09-08T12:31:23;5.03;;;4.65;;
2029;SDS011;1020;48.854;8.830;2023-09-08T12:33:50;5.28;;;4.97;;
2029;SDS011;1020;48.854;8.830;2023-09-08T12:36:18;5.03;;;4.72;;
2029;SDS011;1020;48.854;8.830;2023-09-08T12:38:49;5.35;;;4.85;;
2029;SDS011;1020;48.854;8.830;2023-09-08T12:41:16;4.47;;;4.18;;
2029;SDS011;1020;48.854;8.830;2023-09-08T12:43:44;4.38;;;4.18;;
2029;SDS011;1020;48.854;8.830;2023-09-08T12:46:12;4.63;;;4.43;;
2029;SDS011;1020;48.854;8.830;2023-09-08T12:48:39;5.18;;;4.88;;
2029;SDS011;1020;48.854;8.830;2023-09-08T12:51:05;5.53;;;5.13;;
2029;SDS011;1020;48.854;8.830;2023-09-08T12:53:33;4.32;;;4.13;;
2029;SDS011;1020;48.854;8.830;2023-09-08T12:56:00;4.68;;;4.32;;
2029;SDS011;1020;48.854;8.830;2023-09-08T12:58:27;5.22;;;4.47;;
2029;SDS011;1020;48.854;8.830;2023-09-08T13:00:54;5.78;;;5.47;;
2029;SDS011;1020;48.854;8.830;2023-09-08T13:03:23;4.85;;;4.50;;
2029;SDS011;1020;48.854;8.830;2023-09-08T13:05:50;5.13;;;4.82;;
2029;SDS011;1020;48.854;8.830;2023-09-08T13:08:16;4.68;;;4.38;;
2029;SDS011;1020;48.854;8.830;2023-09-08T13:10:43;4.90;;;4.50;;
2029;SDS011;1020;48.854;8.830;2023-09-08T13:13:10;6.22;;;5.22;;
2029;SDS011;1020;48.854;8.830;2023-09-08T13:15:36;4.80;;;4.50;;
2029;SDS011;1020;48.854;8.830;2023-09-08T13:18:03;4.75;;;4.35;;
2029;SDS011;1020;48.854;8.830;2023-09-08T13:20:32;4.63;;;4.43;;
2029;SDS011;1020;48.854;8.830;2023-09-08T13:22:59;4.55;;;4.20;;
2029;SDS011;1020;48.854;8.830;2023-09-08T13:25:25;4.63;;;4.32;;
2029;SDS011;1020;48.854;8.830;2023-09-08T13:27:52;4.13;;;3.92;;
2029;SDS011;1020;48.854;8.830;2023-09-08T13:30:19;4.18;;;3.97;;
2029;SDS011;1020;48.854;8.830;2023-09-08T13:32:47;5.05;;;4.75;;
2029;SDS011;1020;48.854;8.830;2023-09-08T13:35:14;4.50;;;4.20;;
2029;SDS011;1020;48.854;8.830;2023-09-08T13:37:42;4.90;;;4.60;;
2029;SDS011;1020;48.854;8.830;2023-09-08T13:40:09;4.78;;;4.53;;
2029;SDS011;1020;48.854;8.830;2023-09-08T13:42:36;5.03;;;4.45;;
2029;SDS011;1020;48.854;8.830;2023-09-08T13:45:03;4.28;;;3.97;;
2029;SDS011;1020;48.854;8.830;2023-09-08T13:47:30;4.40;;;4.20;;
2029;SDS011;1020;48.854;8.830;2023-09-08T13:49:57;4.32;;;4.13;;
2029;SDS011;1020;48.854;8.830;2023-09-08T13:52:24;4.43;;;4.22;;
2029;SDS011;1020;48.854;8.830;2023-09-08T13:54:52;4.30;;;3.88;;
2029;SDS011;1020;48.854;8.830;2023-09-08T13:57:18;4.28;;;4.07;;
2029;SDS011;1020;48.854;8.830;2023-09-08T13:59:46;4.70;;;4.40;;
2029;SDS011;1020;48.854;8.830;2023-09-08T14:02:13;4.70;;;4.50;;
2029;SDS011;1020;48.854;8.830;2023-09-08T14:04:39;4.30;;;3.88;;
2029;SDS011;1020;48.854;8.830;2023-09-08T14:07:06;4.75;;;4.35;;
2029;SDS011;1020;48.854;8.830;2023-09-08T14:09:34;4.75;;;4.45;;
2029;SDS011;1020;48.854;8.830;2023-09-08T14:12:02;4.35;;;4.15;;
2029;SDS011;1020;48.854;8.830;2023-09-08T14:14:29;4.53;;;4.22;;
2029;SDS011;1020;48.854;8.830;2023-09-08T14:16:56;4.40;;;4.10;;
2029;SDS011;1020;48.854;8.830;2023-09-08T14:19:23;4.60;;;4.30;;
2029;SDS011;1020;48.854;8.830;2023-09-08T14:21:49;4.68;;;4.32;;
2029;SDS011;1020;48.854;8.830;2023-09-08T14:24:16;5.22;;;4.20;;
2029;SDS011;1020;48.854;8.830;2023-09-08T14:26:43;4.85;;;4.45;;
2029;SDS011;1020;48.854;8.830;2023-09-08T14:29:11;4.80;;;4.50;;
2029;SDS011;1020;48.854;8.830;2023-09-08T14:31:38;4.80;;;4.50;;
2029;SDS011;1020;48.854;8.830;2023-09-08T14:34:05;4.80;;;4.40;;
2029;SDS011;1020;48.854;8.830;2023-09-08T14:36:31;4.60;;;4.40;;
2029;SDS011;1020;48.854;8.830;2023-09-08T14:38:58;5.27;;;4.97;;
2029;SDS011;1020;48.854;8.830;2023-09-08T14:41:25;5.07;;;4.73;;
2029;SDS011;1020;48.854;8.830;2023-09-08T14:43:52;4.40;;;4.20;;
2029;SDS011;1020;48.854;8.830;2023-09-08T14:46:20;4.77;;;4.47;;
2029;SDS011;1020;48.854;8.830;2023-09-08T14:48:47;4.23;;;4.00;;
2029;SDS011;1020;48.854;8.830;2023-09-08T14:51:14;4.90;;;4.70;;
2029;SDS011;1020;48.854;8.830;2023-09-08T14:53:40;5.10;;;4.70;;
2029;SDS011;1020;48.854;8.830;2023-09-08T14:56:07;6.17;;;5.30;;
2029;SDS011;1020;48.854;8.830;2023-09-08T14:58:34;4.97;;;4.77;;
2029;SDS011;1020;48.854;8.830;2023-09-08T15:01:01;5.27;;;4.97;;
2029;SDS011;1020;48.854;8.830;2023-09-08T15:03:31;5.63;;;5.23;;
2029;SDS011;1020;48.854;8.830;2023-09-08T15:05:58;5.07;;;4.67;;
2029;SDS011;1020;48.854;8.830;2023-09-08T15:08:25;5.20;;;4.87;;
2029;SDS011;1020;48.854;8.830;2023-09-08T15:10:52;5.03;;;4.60;;
2029;SDS011;1020;48.854;8.830;2023-09-08T15:13:18;4.67;;;4.33;;
2029;SDS011;1020;48.854;8.830;2023-09-08T15:15:45;5.17;;;4.87;;
2029;SDS011;1020;48.854;8.830;2023-09-08T15:18:12;5.60;;;4.77;;